sensor_id;sensor_type;location;lat;lon;timestamp;pressure;altitude;pressure_sealevel;temperature
38114;BMP180;23926;53.222;6.354;2023-04-25T00:01:16;100727.00;;;9.40
38114;BMP180;23926;53.222;6.354;2023-04-25T00:03:42;100704.00;;;9.30
38114;BMP180;23926;53.222;6.354;2023-04-25T00:06:07;100716.00;;;9.30
38114;BMP180;23926;53.222;6.354;2023-04-25T00:08:33;100733.00;;;9.30
38114;BMP180;23926;53.222;6.354;2023-04-25T00:10:59;100729.00;;;9.20
38114;BMP180;23926;53.222;6.354;2023-04-25T00:13:25;100732.00;;;9.20
38114;BMP180;23926;53.222;6.354;2023-04-25T00:15:51;100740.00;;;9.00
38114;BMP180;23926;53.222;6.354;2023-04-25T00:18:18;100724.00;;;8.90
38114;BMP180;23926;53.222;6.354;2023-04-25T00:20:44;100732.00;;;8.90
38114;BMP180;23926;53.222;6.354;2023-04-25T00:23:16;100742.00;;;8.80
38114;BMP180;23926;53.222;6.354;2023-04-25T00:25:47;100729.00;;;8.90
38114;BMP180;23926;53.222;6.354;2023-04-25T00:28:13;100735.00;;;8.80
38114;BMP180;23926;53.222;6.354;2023-04-25T00:30:39;100738.00;;;8.80
38114;BMP180;23926;53.222;6.354;2023-04-25T00:33:05;100740.00;;;8.90
38114;BMP180;23926;53.222;6.354;2023-04-25T00:35:31;100728.00;;;8.90
38114;BMP180;23926;53.222;6.354;2023-04-25T00:37:57;100748.00;;;8.90
38114;BMP180;23926;53.222;6.354;2023-04-25T00:40:22;100734.00;;;8.90
38114;BMP180;23926;53.222;6.354;2023-04-25T00:42:49;100739.00;;;9.00
38114;BMP180;23926;53.222;6.354;2023-04-25T00:45:14;100742.00;;;9.00
38114;BMP180;23926;53.222;6.354;2023-04-25T00:47:41;100720.00;;;9.00
38114;BMP180;23926;53.222;6.354;2023-04-25T00:50:07;100737.00;;;9.00
38114;BMP180;23926;53.222;6.354;2023-04-25T00:52:33;100738.00;;;9.10
38114;BMP180;23926;53.222;6.354;2023-04-25T00:54:59;100754.00;;;9.00
38114;BMP180;23926;53.222;6.354;2023-04-25T00:57:25;100748.00;;;9.00
38114;BMP180;23926;53.222;6.354;2023-04-25T00:59:51;100745.00;;;9.00
38114;BMP180;23926;53.222;6.354;2023-04-25T01:02:18;100747.00;;;9.00
38114;BMP180;23926;53.222;6.354;2023-04-25T01:04:44;100756.00;;;9.10
38114;BMP180;23926;53.222;6.354;2023-04-25T01:07:10;100750.00;;;9.00
38114;BMP180;23926;53.222;6.354;2023-04-25T01:09:35;100747.00;;;9.10
38114;BMP180;23926;53.222;6.354;2023-04-25T01:12:01;100745.00;;;9.20
38114;BMP180;23926;53.222;6.354;2023-04-25T01:14:28;100754.00;;;9.20
38114;BMP180;23926;53.222;6.354;2023-04-25T01:16:53;100745.00;;;9.10
38114;BMP180;23926;53.222;6.354;2023-04-25T01:19:19;100744.00;;;9.20
38114;BMP180;23926;53.222;6.354;2023-04-25T01:21:45;100738.00;;;9.10
38114;BMP180;23926;53.222;6.354;2023-04-25T01:24:12;100731.00;;;9.10
38114;BMP180;23926;53.222;6.354;2023-04-25T01:26:37;100761.00;;;9.10
38114;BMP180;23926;53.222;6.354;2023-04-25T01:29:04;100745.00;;;9.00
38114;BMP180;23926;53.222;6.354;2023-04-25T01:31:30;100751.00;;;9.00
38114;BMP180;23926;53.222;6.354;2023-04-25T01:33:57;100757.00;;;9.00
38114;BMP180;23926;53.222;6.354;2023-04-25T01:36:22;100750.00;;;9.10
38114;BMP180;23926;53.222;6.354;2023-04-25T01:38:47;100759.00;;;9.10
38114;BMP180;23926;53.222;6.354;2023-04-25T01:41:14;100754.00;;;9.00
38114;BMP180;23926;53.222;6.354;2023-04-25T01:43:40;100769.00;;;9.10
38114;BMP180;23926;53.222;6.354;2023-04-25T01:46:06;100762.00;;;9.00
38114;BMP180;23926;53.222;6.354;2023-04-25T01:48:31;100763.00;;;9.00
38114;BMP180;23926;53.222;6.354;2023-04-25T01:50:57;100786.00;;;9.10
38114;BMP180;23926;53.222;6.354;2023-04-25T01:53:23;100779.00;;;9.20
38114;BMP180;23926;53.222;6.354;2023-04-25T01:55:50;100779.00;;;9.20
38114;BMP180;23926;53.222;6.354;2023-04-25T01:58:15;100782.00;;;9.10
38114;BMP180;23926;53.222;6.354;2023-04-25T02:00:40;100785.00;;;9.20
38114;BMP180;23926;53.222;6.354;2023-04-25T02:03:06;100787.00;;;9.10
38114;BMP180;23926;53.222;6.354;2023-04-25T02:05:39;100776.00;;;9.00
38114;BMP180;23926;53.222;6.354;2023-04-25T02:08:06;100783.00;;;9.00
38114;BMP180;23926;53.222;6.354;2023-04-25T02:10:32;100794.00;;;9.00
38114;BMP180;23926;53.222;6.354;2023-04-25T02:12:58;100797.00;;;9.10
38114;BMP180;23926;53.222;6.354;2023-04-25T02:15:23;100790.00;;;9.00
38114;BMP180;23926;53.222;6.354;2023-04-25T02:17:49;100798.00;;;8.80
38114;BMP180;23926;53.222;6.354;2023-04-25T02:20:14;100792.00;;;8.80
38114;BMP180;23926;53.222;6.354;2023-04-25T02:22:41;100797.00;;;8.70
38114;BMP180;23926;53.222;6.354;2023-04-25T02:25:07;100792.00;;;8.70
38114;BMP180;23926;53.222;6.354;2023-04-25T02:27:34;100792.00;;;8.80
38114;BMP180;23926;53.222;6.354;2023-04-25T02:29:59;100799.00;;;8.70
38114;BMP180;23926;53.222;6.354;2023-04-25T02:32:25;100804.00;;;8.70
38114;BMP180;23926;53.222;6.354;2023-04-25T02:34:50;100794.00;;;8.70
38114;BMP180;23926;53.222;6.354;2023-04-25T02:37:16;100806.00;;;8.60
38114;BMP180;23926;53.222;6.354;2023-04-25T02:39:41;100804.00;;;8.70
38114;BMP180;23926;53.222;6.354;2023-04-25T02:42:07;100791.00;;;8.60
38114;BMP180;23926;53.222;6.354;2023-04-25T02:44:32;100794.00;;;8.70
38114;BMP180;23926;53.222;6.354;2023-04-25T02:46:57;100786.00;;;8.70
38114;BMP180;23926;53.222;6.354;2023-04-25T02:49:23;100792.00;;;8.70
38114;BMP180;23926;53.222;6.354;2023-04-25T02:51:48;100808.00;;;8.70
38114;BMP180;23926;53.222;6.354;2023-04-25T02:54:13;100803.00;;;8.80
38114;BMP180;23926;53.222;6.354;2023-04-25T02:56:39;100784.00;;;8.80
38114;BMP180;23926;53.222;6.354;2023-04-25T02:59:04;100806.00;;;8.80
38114;BMP180;23926;53.222;6.354;2023-04-25T03:01:30;100807.00;;;8.80
38114;BMP180;23926;53.222;6.354;2023-04-25T03:03:55;100792.00;;;8.60
38114;BMP180;23926;53.222;6.354;2023-04-25T03:06:21;100802.00;;;8.50
38114;BMP180;23926;53.222;6.354;2023-04-25T03:08:46;100803.00;;;8.50
38114;BMP180;23926;53.222;6.354;2023-04-25T03:11:11;100793.00;;;8.40
38114;BMP180;23926;53.222;6.354;2023-04-25T03:13:37;100788.00;;;8.30
38114;BMP180;23926;53.222;6.354;2023-04-25T03:16:02;100796.00;;;8.20
38114;BMP180;23926;53.222;6.354;2023-04-25T03:18:28;100792.00;;;8.20
38114;BMP180;23926;53.222;6.354;2023-04-25T03:20:53;100798.00;;;8.10
38114;BMP180;23926;53.222;6.354;2023-04-25T03:23:18;100794.00;;;8.10
38114;BMP180;23926;53.222;6.354;2023-04-25T03:25:44;100805.00;;;8.00
38114;BMP180;23926;53.222;6.354;2023-04-25T03:28:09;100792.00;;;7.90
38114;BMP180;23926;53.222;6.354;2023-04-25T03:30:35;100796.00;;;7.90
38114;BMP180;23926;53.222;6.354;2023-04-25T03:33:00;100804.00;;;7.90
38114;BMP180;23926;53.222;6.354;2023-04-25T03:35:25;100811.00;;;8.00
38114;BMP180;23926;53.222;6.354;2023-04-25T03:37:51;100804.00;;;8.00
38114;BMP180;23926;53.222;6.354;2023-04-25T03:40:16;100815.00;;;7.90
38114;BMP180;23926;53.222;6.354;2023-04-25T03:42:41;100812.00;;;7.90
38114;BMP180;23926;53.222;6.354;2023-04-25T03:45:07;100808.00;;;7.80
38114;BMP180;23926;53.222;6.354;2023-04-25T03:47:33;100820.00;;;8.00
38114;BMP180;23926;53.222;6.354;2023-04-25T03:49:58;100810.00;;;7.90
38114;BMP180;23926;53.222;6.354;2023-04-25T03:52:25;100831.00;;;7.90
38114;BMP180;23926;53.222;6.354;2023-04-25T03:54:51;100838.00;;;7.90
38114;BMP180;23926;53.222;6.354;2023-04-25T03:57:16;100844.00;;;7.80
38114;BMP180;23926;53.222;6.354;2023-04-25T03:59:42;100833.00;;;7.70
38114;BMP180;23926;53.222;6.354;2023-04-25T04:02:07;100827.00;;;7.90
38114;BMP180;23926;53.222;6.354;2023-04-25T04:04:32;100844.00;;;7.70
38114;BMP180;23926;53.222;6.354;2023-04-25T04:06:58;100844.00;;;7.70
38114;BMP180;23926;53.222;6.354;2023-04-25T04:09:23;100839.00;;;7.70
38114;BMP180;23926;53.222;6.354;2023-04-25T04:11:49;100846.00;;;7.60
38114;BMP180;23926;53.222;6.354;2023-04-25T04:14:14;100850.00;;;7.60
38114;BMP180;23926;53.222;6.354;2023-04-25T04:16:40;100853.00;;;7.50
38114;BMP180;23926;53.222;6.354;2023-04-25T04:19:05;100865.00;;;7.50
38114;BMP180;23926;53.222;6.354;2023-04-25T04:21:30;100860.00;;;7.50
38114;BMP180;23926;53.222;6.354;2023-04-25T04:23:57;100849.00;;;7.50
38114;BMP180;23926;53.222;6.354;2023-04-25T04:26:23;100867.00;;;7.50
38114;BMP180;23926;53.222;6.354;2023-04-25T04:28:49;100853.00;;;7.50
38114;BMP180;23926;53.222;6.354;2023-04-25T04:31:20;100867.00;;;7.50
38114;BMP180;23926;53.222;6.354;2023-04-25T04:33:46;100855.00;;;7.40
38114;BMP180;23926;53.222;6.354;2023-04-25T04:36:12;100867.00;;;7.40
38114;BMP180;23926;53.222;6.354;2023-04-25T04:38:38;100868.00;;;7.50
38114;BMP180;23926;53.222;6.354;2023-04-25T04:41:03;100860.00;;;7.40
38114;BMP180;23926;53.222;6.354;2023-04-25T04:43:29;100876.00;;;7.50
38114;BMP180;23926;53.222;6.354;2023-04-25T04:45:55;100862.00;;;7.50
38114;BMP180;23926;53.222;6.354;2023-04-25T04:48:23;100878.00;;;7.70
38114;BMP180;23926;53.222;6.354;2023-04-25T04:50:48;100875.00;;;7.80
38114;BMP180;23926;53.222;6.354;2023-04-25T04:53:14;100873.00;;;7.90
38114;BMP180;23926;53.222;6.354;2023-04-25T04:55:39;100883.00;;;8.00
38114;BMP180;23926;53.222;6.354;2023-04-25T04:58:06;100895.00;;;8.00
38114;BMP180;23926;53.222;6.354;2023-04-25T05:00:32;100900.00;;;8.10
38114;BMP180;23926;53.222;6.354;2023-04-25T05:02:58;100896.00;;;8.20
38114;BMP180;23926;53.222;6.354;2023-04-25T05:05:24;100911.00;;;8.20
38114;BMP180;23926;53.222;6.354;2023-04-25T05:07:50;100920.00;;;8.30
38114;BMP180;23926;53.222;6.354;2023-04-25T05:10:16;100916.00;;;8.20
38114;BMP180;23926;53.222;6.354;2023-04-25T05:12:42;100917.00;;;8.10
38114;BMP180;23926;53.222;6.354;2023-04-25T05:15:07;100908.00;;;8.00
38114;BMP180;23926;53.222;6.354;2023-04-25T05:17:33;100917.00;;;8.00
38114;BMP180;23926;53.222;6.354;2023-04-25T05:19:59;100929.00;;;8.00
38114;BMP180;23926;53.222;6.354;2023-04-25T05:22:24;100919.00;;;8.00
38114;BMP180;23926;53.222;6.354;2023-04-25T05:24:50;100916.00;;;8.00
38114;BMP180;23926;53.222;6.354;2023-04-25T05:27:17;100935.00;;;8.10
38114;BMP180;23926;53.222;6.354;2023-04-25T05:29:42;100929.00;;;8.10
38114;BMP180;23926;53.222;6.354;2023-04-25T05:32:08;100932.00;;;8.10
38114;BMP180;23926;53.222;6.354;2023-04-25T05:34:34;100927.00;;;8.10
38114;BMP180;23926;53.222;6.354;2023-04-25T05:37:00;100931.00;;;8.20
38114;BMP180;23926;53.222;6.354;2023-04-25T05:39:25;100923.00;;;8.30
38114;BMP180;23926;53.222;6.354;2023-04-25T05:41:51;100937.00;;;8.30
38114;BMP180;23926;53.222;6.354;2023-04-25T05:44:16;100935.00;;;8.40
38114;BMP180;23926;53.222;6.354;2023-04-25T05:46:42;100939.00;;;8.40
38114;BMP180;23926;53.222;6.354;2023-04-25T05:49:07;100941.00;;;8.40
38114;BMP180;23926;53.222;6.354;2023-04-25T05:51:33;100931.00;;;8.60
38114;BMP180;23926;53.222;6.354;2023-04-25T05:53:58;100915.00;;;8.70
38114;BMP180;23926;53.222;6.354;2023-04-25T05:56:24;100946.00;;;8.80
38114;BMP180;23926;53.222;6.354;2023-04-25T05:58:49;100938.00;;;8.90
38114;BMP180;23926;53.222;6.354;2023-04-25T06:01:15;100943.00;;;9.10
38114;BMP180;23926;53.222;6.354;2023-04-25T06:03:41;100952.00;;;9.10
38114;BMP180;23926;53.222;6.354;2023-04-25T06:06:08;100945.00;;;9.20
38114;BMP180;23926;53.222;6.354;2023-04-25T06:08:33;100961.00;;;9.20
38114;BMP180;23926;53.222;6.354;2023-04-25T06:10:59;100962.00;;;9.20
38114;BMP180;23926;53.222;6.354;2023-04-25T06:13:24;100967.00;;;9.40
38114;BMP180;23926;53.222;6.354;2023-04-25T06:15:50;100967.00;;;9.60
38114;BMP180;23926;53.222;6.354;2023-04-25T06:18:16;100965.00;;;9.40
38114;BMP180;23926;53.222;6.354;2023-04-25T06:20:42;100972.00;;;9.40
38114;BMP180;23926;53.222;6.354;2023-04-25T06:23:07;100974.00;;;9.20
38114;BMP180;23926;53.222;6.354;2023-04-25T06:25:32;100968.00;;;9.10
38114;BMP180;23926;53.222;6.354;2023-04-25T06:27:58;100985.00;;;8.90
38114;BMP180;23926;53.222;6.354;2023-04-25T06:30:23;100970.00;;;8.90
38114;BMP180;23926;53.222;6.354;2023-04-25T06:32:51;100976.00;;;8.90
38114;BMP180;23926;53.222;6.354;2023-04-25T06:35:18;100988.00;;;9.10
38114;BMP180;23926;53.222;6.354;2023-04-25T06:37:44;100990.00;;;9.20
38114;BMP180;23926;53.222;6.354;2023-04-25T06:40:09;100984.00;;;9.40
38114;BMP180;23926;53.222;6.354;2023-04-25T06:42:35;100997.00;;;9.50
38114;BMP180;23926;53.222;6.354;2023-04-25T06:45:01;100992.00;;;9.20
38114;BMP180;23926;53.222;6.354;2023-04-25T06:47:26;100987.00;;;9.20
38114;BMP180;23926;53.222;6.354;2023-04-25T06:49:51;100985.00;;;9.00
38114;BMP180;23926;53.222;6.354;2023-04-25T06:52:17;100996.00;;;8.90
38114;BMP180;23926;53.222;6.354;2023-04-25T06:54:43;101006.00;;;9.00
38114;BMP180;23926;53.222;6.354;2023-04-25T06:57:08;100998.00;;;9.00
38114;BMP180;23926;53.222;6.354;2023-04-25T06:59:34;100997.00;;;8.90
38114;BMP180;23926;53.222;6.354;2023-04-25T07:01:59;101005.00;;;8.80
38114;BMP180;23926;53.222;6.354;2023-04-25T07:04:25;101018.00;;;8.90
38114;BMP180;23926;53.222;6.354;2023-04-25T07:06:50;101015.00;;;9.10
38114;BMP180;23926;53.222;6.354;2023-04-25T07:09:16;101002.00;;;9.30
38114;BMP180;23926;53.222;6.354;2023-04-25T07:11:41;101024.00;;;9.50
38114;BMP180;23926;53.222;6.354;2023-04-25T07:14:07;101021.00;;;9.60
38114;BMP180;23926;53.222;6.354;2023-04-25T07:16:32;101018.00;;;9.60
38114;BMP180;23926;53.222;6.354;2023-04-25T07:18:58;101013.00;;;9.50
38114;BMP180;23926;53.222;6.354;2023-04-25T07:21:24;101036.00;;;9.40
38114;BMP180;23926;53.222;6.354;2023-04-25T07:23:50;101029.00;;;9.60
38114;BMP180;23926;53.222;6.354;2023-04-25T07:26:16;101027.00;;;9.80
38114;BMP180;23926;53.222;6.354;2023-04-25T07:28:42;101043.00;;;9.90
38114;BMP180;23926;53.222;6.354;2023-04-25T07:31:08;101042.00;;;10.10
38114;BMP180;23926;53.222;6.354;2023-04-25T07:33:34;101038.00;;;9.90
38114;BMP180;23926;53.222;6.354;2023-04-25T07:35:59;101046.00;;;9.80
38114;BMP180;23926;53.222;6.354;2023-04-25T07:38:25;101046.00;;;9.60
38114;BMP180;23926;53.222;6.354;2023-04-25T07:40:51;101060.00;;;9.20
38114;BMP180;23926;53.222;6.354;2023-04-25T07:43:16;101055.00;;;9.30
38114;BMP180;23926;53.222;6.354;2023-04-25T07:45:45;101071.00;;;9.40
38114;BMP180;23926;53.222;6.354;2023-04-25T07:48:13;101062.00;;;9.50
38114;BMP180;23926;53.222;6.354;2023-04-25T07:50:38;101068.00;;;10.10
38114;BMP180;23926;53.222;6.354;2023-04-25T07:53:04;101066.00;;;10.50
38114;BMP180;23926;53.222;6.354;2023-04-25T07:55:29;101073.00;;;10.60
38114;BMP180;23926;53.222;6.354;2023-04-25T07:57:55;101073.00;;;10.60
38114;BMP180;23926;53.222;6.354;2023-04-25T08:00:20;101088.00;;;10.20
38114;BMP180;23926;53.222;6.354;2023-04-25T08:02:45;101109.00;;;9.40
38114;BMP180;23926;53.222;6.354;2023-04-25T08:05:11;101116.00;;;8.60
38114;BMP180;23926;53.222;6.354;2023-04-25T08:07:40;101125.00;;;8.10
38114;BMP180;23926;53.222;6.354;2023-04-25T08:10:07;101123.00;;;7.80
38114;BMP180;23926;53.222;6.354;2023-04-25T08:12:33;101117.00;;;8.00
38114;BMP180;23926;53.222;6.354;2023-04-25T08:14:58;101129.00;;;8.20
38114;BMP180;23926;53.222;6.354;2023-04-25T08:17:24;101135.00;;;8.10
38114;BMP180;23926;53.222;6.354;2023-04-25T08:19:49;101130.00;;;8.20
38114;BMP180;23926;53.222;6.354;2023-04-25T08:22:15;101137.00;;;8.30
38114;BMP180;23926;53.222;6.354;2023-04-25T08:24:41;101145.00;;;8.50
38114;BMP180;23926;53.222;6.354;2023-04-25T08:27:07;101152.00;;;7.90
38114;BMP180;23926;53.222;6.354;2023-04-25T08:29:33;101148.00;;;7.50
38114;BMP180;23926;53.222;6.354;2023-04-25T08:31:59;101120.00;;;7.10
38114;BMP180;23926;53.222;6.354;2023-04-25T08:34:24;101133.00;;;7.10
38114;BMP180;23926;53.222;6.354;2023-04-25T08:36:51;101120.00;;;7.30
38114;BMP180;23926;53.222;6.354;2023-04-25T08:39:16;101130.00;;;7.40
38114;BMP180;23926;53.222;6.354;2023-04-25T08:41:42;101131.00;;;7.70
38114;BMP180;23926;53.222;6.354;2023-04-25T08:44:10;101137.00;;;8.10
38114;BMP180;23926;53.222;6.354;2023-04-25T08:46:38;101134.00;;;8.30
38114;BMP180;23926;53.222;6.354;2023-04-25T08:49:05;101136.00;;;8.40
38114;BMP180;23926;53.222;6.354;2023-04-25T08:51:32;101139.00;;;8.70
38114;BMP180;23926;53.222;6.354;2023-04-25T08:54:11;101127.00;;;8.60
38114;BMP180;23926;53.222;6.354;2023-04-25T08:56:47;101133.00;;;8.90
38114;BMP180;23926;53.222;6.354;2023-04-25T08:59:13;101126.00;;;9.30
38114;BMP180;23926;53.222;6.354;2023-04-25T09:01:39;101149.00;;;9.60
38114;BMP180;23926;53.222;6.354;2023-04-25T09:04:04;101139.00;;;9.80
38114;BMP180;23926;53.222;6.354;2023-04-25T09:06:31;101125.00;;;10.00
38114;BMP180;23926;53.222;6.354;2023-04-25T09:09:07;101145.00;;;10.50
38114;BMP180;23926;53.222;6.354;2023-04-25T09:11:33;101149.00;;;10.80
38114;BMP180;23926;53.222;6.354;2023-04-25T09:21:57;101156.00;;;9.50
38114;BMP180;23926;53.222;6.354;2023-04-25T09:24:41;101169.00;;;8.80
38114;BMP180;23926;53.222;6.354;2023-04-25T09:27:10;101162.00;;;8.70
38114;BMP180;23926;53.222;6.354;2023-04-25T09:29:37;101159.00;;;8.80
38114;BMP180;23926;53.222;6.354;2023-04-25T09:34:45;101175.00;;;9.60
38114;BMP180;23926;53.222;6.354;2023-04-25T09:37:20;101177.00;;;9.80
38114;BMP180;23926;53.222;6.354;2023-04-25T09:39:47;101173.00;;;9.80
38114;BMP180;23926;53.222;6.354;2023-04-25T09:42:14;101187.00;;;9.60
38114;BMP180;23926;53.222;6.354;2023-04-25T09:44:51;101186.00;;;9.60
38114;BMP180;23926;53.222;6.354;2023-04-25T09:47:17;101200.00;;;9.70
38114;BMP180;23926;53.222;6.354;2023-04-25T09:49:43;101188.00;;;9.90
38114;BMP180;23926;53.222;6.354;2023-04-25T09:52:20;101202.00;;;10.00
38114;BMP180;23926;53.222;6.354;2023-04-25T09:54:46;101193.00;;;10.50
38114;BMP180;23926;53.222;6.354;2023-04-25T09:57:17;101185.00;;;10.70
38114;BMP180;23926;53.222;6.354;2023-04-25T09:59:47;101201.00;;;10.80
38114;BMP180;23926;53.222;6.354;2023-04-25T10:02:15;101220.00;;;11.20
38114;BMP180;23926;53.222;6.354;2023-04-25T10:04:41;101215.00;;;10.80
38114;BMP180;23926;53.222;6.354;2023-04-25T10:07:09;101216.00;;;10.20
38114;BMP180;23926;53.222;6.354;2023-04-25T10:09:39;101209.00;;;9.70
38114;BMP180;23926;53.222;6.354;2023-04-25T10:12:06;101214.00;;;9.50
38114;BMP180;23926;53.222;6.354;2023-04-25T10:14:32;101211.00;;;9.40
38114;BMP180;23926;53.222;6.354;2023-04-25T10:16:58;101223.00;;;9.60
38114;BMP180;23926;53.222;6.354;2023-04-25T10:19:27;101217.00;;;10.00
38114;BMP180;23926;53.222;6.354;2023-04-25T10:22:03;101222.00;;;10.70
38114;BMP180;23926;53.222;6.354;2023-04-25T10:24:30;101218.00;;;10.80
38114;BMP180;23926;53.222;6.354;2023-04-25T10:26:57;101218.00;;;10.90
38114;BMP180;23926;53.222;6.354;2023-04-25T10:29:25;101217.00;;;11.00
38114;BMP180;23926;53.222;6.354;2023-04-25T10:31:50;101222.00;;;11.00
38114;BMP180;23926;53.222;6.354;2023-04-25T10:34:17;101225.00;;;11.10
38114;BMP180;23926;53.222;6.354;2023-04-25T10:36:43;101247.00;;;10.70
38114;BMP180;23926;53.222;6.354;2023-04-25T10:39:22;101255.00;;;10.40
38114;BMP180;23926;53.222;6.354;2023-04-25T10:41:56;101238.00;;;10.00
38114;BMP180;23926;53.222;6.354;2023-04-25T10:44:26;101241.00;;;9.80
38114;BMP180;23926;53.222;6.354;2023-04-25T10:46:51;101243.00;;;9.90
38114;BMP180;23926;53.222;6.354;2023-04-25T10:49:41;101243.00;;;9.90
38114;BMP180;23926;53.222;6.354;2023-04-25T10:52:25;101247.00;;;10.00
38114;BMP180;23926;53.222;6.354;2023-04-25T10:54:55;101260.00;;;10.40
38114;BMP180;23926;53.222;6.354;2023-04-25T11:00:14;101256.00;;;10.20
38114;BMP180;23926;53.222;6.354;2023-04-25T11:02:47;101260.00;;;10.60
38114;BMP180;23926;53.222;6.354;2023-04-25T11:05:20;101249.00;;;10.70
38114;BMP180;23926;53.222;6.354;2023-04-25T11:07:54;101260.00;;;10.80
38114;BMP180;23926;53.222;6.354;2023-04-25T11:10:28;101257.00;;;10.90
38114;BMP180;23926;53.222;6.354;2023-04-25T11:12:54;101248.00;;;11.10
38114;BMP180;23926;53.222;6.354;2023-04-25T11:15:20;101266.00;;;11.10
38114;BMP180;23926;53.222;6.354;2023-04-25T11:17:45;101252.00;;;11.00
38114;BMP180;23926;53.222;6.354;2023-04-25T11:20:12;101265.00;;;10.80
38114;BMP180;23926;53.222;6.354;2023-04-25T11:22:39;101264.00;;;10.70
38114;BMP180;23926;53.222;6.354;2023-04-25T11:25:07;101274.00;;;10.90
38114;BMP180;23926;53.222;6.354;2023-04-25T11:27:33;101291.00;;;10.90
38114;BMP180;23926;53.222;6.354;2023-04-25T11:30:10;101292.00;;;10.70
38114;BMP180;23926;53.222;6.354;2023-04-25T11:32:35;101285.00;;;10.60
38114;BMP180;23926;53.222;6.354;2023-04-25T11:35:00;101288.00;;;10.60
38114;BMP180;23926;53.222;6.354;2023-04-25T11:37:26;101283.00;;;10.90
38114;BMP180;23926;53.222;6.354;2023-04-25T11:39:52;101271.00;;;11.10
38114;BMP180;23926;53.222;6.354;2023-04-25T11:42:17;101274.00;;;11.20
38114;BMP180;23926;53.222;6.354;2023-04-25T11:44:43;101277.00;;;11.20
38114;BMP180;23926;53.222;6.354;2023-04-25T11:47:08;101292.00;;;11.40
38114;BMP180;23926;53.222;6.354;2023-04-25T11:49:35;101287.00;;;11.70
38114;BMP180;23926;53.222;6.354;2023-04-25T11:52:00;101292.00;;;12.00
38114;BMP180;23926;53.222;6.354;2023-04-25T11:54:26;101305.00;;;11.70
38114;BMP180;23926;53.222;6.354;2023-04-25T11:56:51;101289.00;;;11.40
38114;BMP180;23926;53.222;6.354;2023-04-25T11:59:23;101297.00;;;11.20
38114;BMP180;23926;53.222;6.354;2023-04-25T12:01:49;101311.00;;;11.00
38114;BMP180;23926;53.222;6.354;2023-04-25T12:04:19;101312.00;;;10.80
38114;BMP180;23926;53.222;6.354;2023-04-25T12:06:46;101302.00;;;11.10
38114;BMP180;23926;53.222;6.354;2023-04-25T12:09:20;101306.00;;;11.10
38114;BMP180;23926;53.222;6.354;2023-04-25T12:11:53;101315.00;;;11.00
38114;BMP180;23926;53.222;6.354;2023-04-25T12:14:26;101294.00;;;10.90
38114;BMP180;23926;53.222;6.354;2023-04-25T12:16:54;101310.00;;;10.90
38114;BMP180;23926;53.222;6.354;2023-04-25T12:19:21;101320.00;;;10.90
38114;BMP180;23926;53.222;6.354;2023-04-25T12:21:47;101318.00;;;11.10
38114;BMP180;23926;53.222;6.354;2023-04-25T12:27:06;101323.00;;;10.80
38114;BMP180;23926;53.222;6.354;2023-04-25T12:29:34;101317.00;;;10.80
38114;BMP180;23926;53.222;6.354;2023-04-25T12:32:00;101321.00;;;10.70
38114;BMP180;23926;53.222;6.354;2023-04-25T12:34:27;101328.00;;;10.40
38114;BMP180;23926;53.222;6.354;2023-04-25T12:36:54;101321.00;;;10.40
38114;BMP180;23926;53.222;6.354;2023-04-25T12:39:23;101320.00;;;10.70
38114;BMP180;23926;53.222;6.354;2023-04-25T12:41:52;101321.00;;;11.40
38114;BMP180;23926;53.222;6.354;2023-04-25T12:44:19;101325.00;;;11.80
38114;BMP180;23926;53.222;6.354;2023-04-25T12:46:45;101330.00;;;11.90
38114;BMP180;23926;53.222;6.354;2023-04-25T12:49:11;101341.00;;;11.70
38114;BMP180;23926;53.222;6.354;2023-04-25T12:51:37;101343.00;;;11.50
38114;BMP180;23926;53.222;6.354;2023-04-25T12:54:04;101345.00;;;11.70
38114;BMP180;23926;53.222;6.354;2023-04-25T12:56:30;101341.00;;;12.10
38114;BMP180;23926;53.222;6.354;2023-04-25T12:58:56;101348.00;;;12.00
38114;BMP180;23926;53.222;6.354;2023-04-25T13:01:22;101330.00;;;11.80
38114;BMP180;23926;53.222;6.354;2023-04-25T13:03:48;101339.00;;;11.60
38114;BMP180;23926;53.222;6.354;2023-04-25T13:06:14;101340.00;;;10.90
38114;BMP180;23926;53.222;6.354;2023-04-25T13:08:40;101342.00;;;10.50
38114;BMP180;23926;53.222;6.354;2023-04-25T13:11:06;101343.00;;;10.20
38114;BMP180;23926;53.222;6.354;2023-04-25T13:13:32;101352.00;;;10.30
38114;BMP180;23926;53.222;6.354;2023-04-25T13:16:02;101341.00;;;10.90
38114;BMP180;23926;53.222;6.354;2023-04-25T13:18:29;101349.00;;;11.50
38114;BMP180;23926;53.222;6.354;2023-04-25T13:20:55;101347.00;;;11.50
38114;BMP180;23926;53.222;6.354;2023-04-25T13:23:21;101366.00;;;11.40
38114;BMP180;23926;53.222;6.354;2023-04-25T13:25:46;101347.00;;;11.20
38114;BMP180;23926;53.222;6.354;2023-04-25T13:28:12;101340.00;;;11.00
38114;BMP180;23926;53.222;6.354;2023-04-25T13:30:38;101357.00;;;10.80
38114;BMP180;23926;53.222;6.354;2023-04-25T13:33:04;101343.00;;;10.90
38114;BMP180;23926;53.222;6.354;2023-04-25T13:35:33;101352.00;;;10.90
38114;BMP180;23926;53.222;6.354;2023-04-25T13:37:58;101361.00;;;10.90
38114;BMP180;23926;53.222;6.354;2023-04-25T13:40:24;101372.00;;;11.10
38114;BMP180;23926;53.222;6.354;2023-04-25T13:42:50;101380.00;;;11.30
38114;BMP180;23926;53.222;6.354;2023-04-25T13:45:16;101363.00;;;11.10
38114;BMP180;23926;53.222;6.354;2023-04-25T13:47:41;101360.00;;;11.20
38114;BMP180;23926;53.222;6.354;2023-04-25T13:50:07;101376.00;;;11.40
38114;BMP180;23926;53.222;6.354;2023-04-25T13:52:33;101380.00;;;11.50
38114;BMP180;23926;53.222;6.354;2023-04-25T13:54:58;101366.00;;;11.60
38114;BMP180;23926;53.222;6.354;2023-04-25T13:57:24;101352.00;;;11.50
38114;BMP180;23926;53.222;6.354;2023-04-25T13:59:50;101379.00;;;11.80
38114;BMP180;23926;53.222;6.354;2023-04-25T14:02:16;101378.00;;;12.00
38114;BMP180;23926;53.222;6.354;2023-04-25T14:04:42;101374.00;;;11.80
38114;BMP180;23926;53.222;6.354;2023-04-25T14:07:07;101392.00;;;11.60
38114;BMP180;23926;53.222;6.354;2023-04-25T14:09:33;101382.00;;;11.30
38114;BMP180;23926;53.222;6.354;2023-04-25T14:11:59;101376.00;;;11.10
38114;BMP180;23926;53.222;6.354;2023-04-25T14:14:25;101389.00;;;11.40
38114;BMP180;23926;53.222;6.354;2023-04-25T14:16:51;101381.00;;;11.40